sensor_id;sensor_type;location;lat;lon;timestamp;P1;durP1;ratioP1;P2;durP2;ratioP2
76336;SDS011;65157;50.082;18.178;2023-07-29T00:02:07;3.40;;;3.20;;
76336;SDS011;65157;50.082;18.178;2023-07-29T00:04:33;3.00;;;2.70;;
76336;SDS011;65157;50.082;18.178;2023-07-29T00:06:59;3.50;;;2.90;;
76336;SDS011;65157;50.082;18.178;2023-07-29T00:09:24;3.70;;;3.50;;
76336;SDS011;65157;50.082;18.178;2023-07-29T00:11:50;4.00;;;3.80;;
76336;SDS011;65157;50.082;18.178;2023-07-29T00:14:16;3.30;;;3.10;;
76336;SDS011;65157;50.082;18.178;2023-07-29T00:16:42;3.90;;;3.60;;
76336;SDS011;65157;50.082;18.178;2023-07-29T00:19:08;3.20;;;3.00;;
76336;SDS011;65157;50.082;18.178;2023-07-29T00:21:34;3.10;;;2.90;;
76336;SDS011;65157;50.082;18.178;2023-07-29T00:24:00;3.30;;;3.00;;
76336;SDS011;65157;50.082;18.178;2023-07-29T00:26:26;4.30;;;3.80;;
76336;SDS011;65157;50.082;18.178;2023-07-29T00:28:52;3.30;;;3.10;;
76336;SDS011;65157;50.082;18.178;2023-07-29T00:31:18;4.80;;;4.00;;
76336;SDS011;65157;50.082;18.178;2023-07-29T00:33:44;2.40;;;2.20;;
76336;SDS011;65157;50.082;18.178;2023-07-29T00:36:10;3.70;;;3.40;;
76336;SDS011;65157;50.082;18.178;2023-07-29T00:38:35;3.80;;;3.50;;
76336;SDS011;65157;50.082;18.178;2023-07-29T00:41:02;3.40;;;3.10;;
76336;SDS011;65157;50.082;18.178;2023-07-29T00:43:28;3.10;;;2.90;;
76336;SDS011;65157;50.082;18.178;2023-07-29T00:45:55;3.60;;;3.30;;
76336;SDS011;65157;50.082;18.178;2023-07-29T00:48:21;4.00;;;3.70;;
76336;SDS011;65157;50.082;18.178;2023-07-29T00:50:48;3.10;;;2.90;;
76336;SDS011;65157;50.082;18.178;2023-07-29T00:55:40;3.30;;;3.00;;
76336;SDS011;65157;50.082;18.178;2023-07-29T00:58:07;3.20;;;2.80;;
76336;SDS011;65157;50.082;18.178;2023-07-29T01:00:33;4.20;;;3.30;;
76336;SDS011;65157;50.082;18.178;2023-07-29T01:02:59;3.20;;;2.90;;
76336;SDS011;65157;50.082;18.178;2023-07-29T01:05:26;3.30;;;3.10;;
76336;SDS011;65157;50.082;18.178;2023-07-29T01:13:58;3.60;;;2.90;;
76336;SDS011;65157;50.082;18.178;2023-07-29T01:16:39;2.90;;;2.70;;
76336;SDS011;65157;50.082;18.178;2023-07-29T01:19:08;3.30;;;3.10;;
76336;SDS011;65157;50.082;18.178;2023-07-29T01:21:52;5.00;;;4.60;;
76336;SDS011;65157;50.082;18.178;2023-07-29T01:24:18;5.40;;;4.40;;
76336;SDS011;65157;50.082;18.178;2023-07-29T01:26:43;4.70;;;4.30;;
76336;SDS011;65157;50.082;18.178;2023-07-29T01:29:09;4.50;;;4.20;;
76336;SDS011;65157;50.082;18.178;2023-07-29T01:31:38;4.70;;;4.30;;
76336;SDS011;65157;50.082;18.178;2023-07-29T01:34:09;3.30;;;3.00;;
76336;SDS011;65157;50.082;18.178;2023-07-29T01:36:43;3.90;;;2.50;;
76336;SDS011;65157;50.082;18.178;2023-07-29T01:39:11;3.40;;;3.20;;
76336;SDS011;65157;50.082;18.178;2023-07-29T01:41:39;4.40;;;3.50;;
76336;SDS011;65157;50.082;18.178;2023-07-29T01:44:05;4.40;;;4.10;;
76336;SDS011;65157;50.082;18.178;2023-07-29T01:46:35;3.30;;;3.10;;
76336;SDS011;65157;50.082;18.178;2023-07-29T01:49:02;3.90;;;3.60;;
76336;SDS011;65157;50.082;18.178;2023-07-29T01:51:28;3.70;;;3.40;;
76336;SDS011;65157;50.082;18.178;2023-07-29T01:53:54;4.80;;;4.40;;
76336;SDS011;65157;50.082;18.178;2023-07-29T01:56:19;4.10;;;3.80;;
76336;SDS011;65157;50.082;18.178;2023-07-29T01:58:45;3.30;;;2.90;;
76336;SDS011;65157;50.082;18.178;2023-07-29T02:01:11;3.60;;;3.40;;
76336;SDS011;65157;50.082;18.178;2023-07-29T02:03:37;3.20;;;3.00;;
76336;SDS011;65157;50.082;18.178;2023-07-29T02:06:03;4.50;;;4.10;;
76336;SDS011;65157;50.082;18.178;2023-07-29T02:08:29;4.20;;;3.60;;
76336;SDS011;65157;50.082;18.178;2023-07-29T02:10:56;4.30;;;4.00;;
76336;SDS011;65157;50.082;18.178;2023-07-29T02:13:22;3.30;;;3.00;;
76336;SDS011;65157;50.082;18.178;2023-07-29T02:15:48;5.20;;;4.70;;
76336;SDS011;65157;50.082;18.178;2023-07-29T02:18:14;4.00;;;3.70;;
76336;SDS011;65157;50.082;18.178;2023-07-29T02:20:40;3.20;;;3.00;;
76336;SDS011;65157;50.082;18.178;2023-07-29T02:23:06;5.10;;;4.80;;
76336;SDS011;65157;50.082;18.178;2023-07-29T02:25:34;3.60;;;3.30;;
76336;SDS011;65157;50.082;18.178;2023-07-29T02:28:01;4.70;;;4.40;;
76336;SDS011;65157;50.082;18.178;2023-07-29T02:30:27;4.30;;;3.70;;
76336;SDS011;65157;50.082;18.178;2023-07-29T02:32:53;3.70;;;3.40;;
76336;SDS011;65157;50.082;18.178;2023-07-29T02:35:19;4.20;;;3.90;;
76336;SDS011;65157;50.082;18.178;2023-07-29T02:37:45;3.40;;;3.10;;
76336;SDS011;65157;50.082;18.178;2023-07-29T02:40:11;3.50;;;3.20;;
76336;SDS011;65157;50.082;18.178;2023-07-29T02:42:37;4.50;;;4.00;;
76336;SDS011;65157;50.082;18.178;2023-07-29T02:45:03;4.60;;;4.10;;
76336;SDS011;65157;50.082;18.178;2023-07-29T02:47:29;4.80;;;4.40;;
76336;SDS011;65157;50.082;18.178;2023-07-29T02:49:55;4.60;;;3.70;;
76336;SDS011;65157;50.082;18.178;2023-07-29T02:52:22;5.50;;;5.00;;
76336;SDS011;65157;50.082;18.178;2023-07-29T02:54:49;5.90;;;5.20;;
76336;SDS011;65157;50.082;18.178;2023-07-29T02:57:15;4.40;;;4.00;;
76336;SDS011;65157;50.082;18.178;2023-07-29T02:59:41;7.60;;;5.30;;
76336;SDS011;65157;50.082;18.178;2023-07-29T03:02:07;5.20;;;4.20;;
76336;SDS011;65157;50.082;18.178;2023-07-29T03:04:33;6.60;;;5.90;;
76336;SDS011;65157;50.082;18.178;2023-07-29T03:06:58;5.80;;;4.50;;
76336;SDS011;65157;50.082;18.178;2023-07-29T03:09:24;6.00;;;5.60;;
76336;SDS011;65157;50.082;18.178;2023-07-29T03:11:50;4.70;;;4.30;;
76336;SDS011;65157;50.082;18.178;2023-07-29T03:14:16;5.00;;;4.60;;
76336;SDS011;65157;50.082;18.178;2023-07-29T03:16:42;5.20;;;4.50;;
76336;SDS011;65157;50.082;18.178;2023-07-29T03:19:08;4.70;;;3.70;;
76336;SDS011;65157;50.082;18.178;2023-07-29T03:21:34;5.70;;;5.30;;
76336;SDS011;65157;50.082;18.178;2023-07-29T03:23:59;5.70;;;4.40;;
76336;SDS011;65157;50.082;18.178;2023-07-29T03:26:28;5.10;;;4.50;;
76336;SDS011;65157;50.082;18.178;2023-07-29T03:28:54;4.40;;;4.00;;
76336;SDS011;65157;50.082;18.178;2023-07-29T03:31:20;3.80;;;3.50;;
76336;SDS011;65157;50.082;18.178;2023-07-29T03:33:46;4.50;;;4.10;;
76336;SDS011;65157;50.082;18.178;2023-07-29T03:36:12;4.00;;;3.60;;
76336;SDS011;65157;50.082;18.178;2023-07-29T03:38:38;5.10;;;4.70;;
76336;SDS011;65157;50.082;18.178;2023-07-29T03:41:04;4.80;;;4.20;;
76336;SDS011;65157;50.082;18.178;2023-07-29T03:43:29;3.90;;;3.60;;
76336;SDS011;65157;50.082;18.178;2023-07-29T03:45:55;5.50;;;5.10;;
76336;SDS011;65157;50.082;18.178;2023-07-29T03:48:21;4.70;;;4.30;;
76336;SDS011;65157;50.082;18.178;2023-07-29T03:50:47;5.90;;;5.30;;
76336;SDS011;65157;50.082;18.178;2023-07-29T03:53:13;4.90;;;4.50;;
76336;SDS011;65157;50.082;18.178;2023-07-29T03:55:39;4.90;;;4.40;;
76336;SDS011;65157;50.082;18.178;2023-07-29T03:58:05;3.80;;;3.50;;
76336;SDS011;65157;50.082;18.178;2023-07-29T04:00:31;5.00;;;4.70;;
76336;SDS011;65157;50.082;18.178;2023-07-29T04:02:57;4.50;;;4.00;;
76336;SDS011;65157;50.082;18.178;2023-07-29T04:05:23;5.50;;;5.10;;
76336;SDS011;65157;50.082;18.178;2023-07-29T04:07:49;4.90;;;4.50;;
76336;SDS011;65157;50.082;18.178;2023-07-29T04:10:15;4.80;;;4.40;;
76336;SDS011;65157;50.082;18.178;2023-07-29T04:12:41;5.30;;;4.80;;
76336;SDS011;65157;50.082;18.178;2023-07-29T04:15:08;6.10;;;4.20;;
76336;SDS011;65157;50.082;18.178;2023-07-29T04:17:34;5.30;;;4.80;;
76336;SDS011;65157;50.082;18.178;2023-07-29T04:20:00;4.50;;;3.80;;
76336;SDS011;65157;50.082;18.178;2023-07-29T04:22:27;4.50;;;4.10;;
76336;SDS011;65157;50.082;18.178;2023-07-29T04:24:53;4.80;;;4.40;;
76336;SDS011;65157;50.082;18.178;2023-07-29T04:27:18;5.60;;;5.10;;
76336;SDS011;65157;50.082;18.178;2023-07-29T04:29:44;6.00;;;5.40;;
76336;SDS011;65157;50.082;18.178;2023-07-29T04:32:10;5.20;;;4.70;;
76336;SDS011;65157;50.082;18.178;2023-07-29T04:34:36;5.10;;;4.30;;
76336;SDS011;65157;50.082;18.178;2023-07-29T04:37:02;5.40;;;4.70;;
76336;SDS011;65157;50.082;18.178;2023-07-29T04:39:28;7.10;;;3.90;;
76336;SDS011;65157;50.082;18.178;2023-07-29T04:41:54;6.30;;;5.70;;
76336;SDS011;65157;50.082;18.178;2023-07-29T04:44:19;5.60;;;5.10;;
76336;SDS011;65157;50.082;18.178;2023-07-29T04:46:46;6.10;;;5.50;;
76336;SDS011;65157;50.082;18.178;2023-07-29T04:49:13;6.50;;;4.30;;
76336;SDS011;65157;50.082;18.178;2023-07-29T04:51:39;4.60;;;4.20;;
76336;SDS011;65157;50.082;18.178;2023-07-29T04:54:05;6.00;;;4.20;;
76336;SDS011;65157;50.082;18.178;2023-07-29T04:56:31;6.20;;;4.40;;
76336;SDS011;65157;50.082;18.178;2023-07-29T04:58:56;4.00;;;3.50;;
76336;SDS011;65157;50.082;18.178;2023-07-29T05:01:22;5.60;;;4.70;;
76336;SDS011;65157;50.082;18.178;2023-07-29T05:03:48;6.40;;;5.10;;
76336;SDS011;65157;50.082;18.178;2023-07-29T05:06:14;9.60;;;4.30;;
76336;SDS011;65157;50.082;18.178;2023-07-29T05:08:40;5.80;;;4.20;;
76336;SDS011;65157;50.082;18.178;2023-07-29T05:11:06;6.40;;;5.70;;
76336;SDS011;65157;50.082;18.178;2023-07-29T05:13:32;5.00;;;4.20;;
76336;SDS011;65157;50.082;18.178;2023-07-29T05:15:58;5.40;;;4.90;;
76336;SDS011;65157;50.082;18.178;2023-07-29T05:18:23;3.80;;;3.50;;
76336;SDS011;65157;50.082;18.178;2023-07-29T05:20:49;6.80;;;5.00;;
76336;SDS011;65157;50.082;18.178;2023-07-29T05:23:15;5.40;;;4.90;;
76336;SDS011;65157;50.082;18.178;2023-07-29T05:25:41;4.80;;;4.30;;
76336;SDS011;65157;50.082;18.178;2023-07-29T05:28:07;4.70;;;4.30;;
76336;SDS011;65157;50.082;18.178;2023-07-29T05:30:33;4.90;;;4.30;;
76336;SDS011;65157;50.082;18.178;2023-07-29T05:32:59;5.30;;;5.00;;
76336;SDS011;65157;50.082;18.178;2023-07-29T05:35:26;3.80;;;3.50;;
76336;SDS011;65157;50.082;18.178;2023-07-29T05:37:52;4.60;;;3.60;;
76336;SDS011;65157;50.082;18.178;2023-07-29T05:40:18;5.00;;;4.40;;
76336;SDS011;65157;50.082;18.178;2023-07-29T05:42:44;3.40;;;3.20;;
76336;SDS011;65157;50.082;18.178;2023-07-29T05:45:12;5.10;;;4.70;;
76336;SDS011;65157;50.082;18.178;2023-07-29T05:47:38;3.40;;;3.10;;
76336;SDS011;65157;50.082;18.178;2023-07-29T05:50:04;5.10;;;4.70;;
76336;SDS011;65157;50.082;18.178;2023-07-29T05:52:31;4.10;;;3.70;;
76336;SDS011;65157;50.082;18.178;2023-07-29T05:54:57;4.90;;;4.50;;
76336;SDS011;65157;50.082;18.178;2023-07-29T05:57:23;3.40;;;2.80;;
76336;SDS011;65157;50.082;18.178;2023-07-29T05:59:49;3.20;;;3.00;;
76336;SDS011;65157;50.082;18.178;2023-07-29T06:02:15;3.70;;;3.40;;
76336;SDS011;65157;50.082;18.178;2023-07-29T06:04:41;5.80;;;3.30;;
76336;SDS011;65157;50.082;18.178;2023-07-29T06:07:07;4.10;;;3.90;;
76336;SDS011;65157;50.082;18.178;2023-07-29T06:09:34;4.20;;;3.90;;
76336;SDS011;65157;50.082;18.178;2023-07-29T06:12:00;5.60;;;5.20;;
76336;SDS011;65157;50.082;18.178;2023-07-29T06:14:26;3.60;;;3.30;;
76336;SDS011;65157;50.082;18.178;2023-07-29T06:16:53;3.90;;;3.70;;
76336;SDS011;65157;50.082;18.178;2023-07-29T06:19:20;4.70;;;3.50;;
76336;SDS011;65157;50.082;18.178;2023-07-29T06:21:47;3.00;;;2.80;;
76336;SDS011;65157;50.082;18.178;2023-07-29T06:24:13;4.50;;;4.10;;
76336;SDS011;65157;50.082;18.178;2023-07-29T06:26:41;3.60;;;3.30;;
76336;SDS011;65157;50.082;18.178;2023-07-29T06:29:07;4.20;;;3.80;;
76336;SDS011;65157;50.082;18.178;2023-07-29T06:31:33;4.00;;;3.70;;
76336;SDS011;65157;50.082;18.178;2023-07-29T06:34:01;5.50;;;5.10;;
76336;SDS011;65157;50.082;18.178;2023-07-29T06:36:28;3.60;;;3.40;;
76336;SDS011;65157;50.082;18.178;2023-07-29T06:38:53;4.40;;;4.00;;
76336;SDS011;65157;50.082;18.178;2023-07-29T06:41:19;3.70;;;3.30;;
76336;SDS011;65157;50.082;18.178;2023-07-29T06:43:45;4.40;;;3.70;;
76336;SDS011;65157;50.082;18.178;2023-07-29T06:46:11;4.10;;;3.70;;
76336;SDS011;65157;50.082;18.178;2023-07-29T06:48:37;3.70;;;3.40;;
76336;SDS011;65157;50.082;18.178;2023-07-29T06:51:03;3.30;;;3.10;;
76336;SDS011;65157;50.082;18.178;2023-07-29T06:53:29;2.50;;;2.30;;
76336;SDS011;65157;50.082;18.178;2023-07-29T06:55:55;2.70;;;2.50;;
76336;SDS011;65157;50.082;18.178;2023-07-29T06:58:21;4.30;;;4.10;;
76336;SDS011;65157;50.082;18.178;2023-07-29T07:00:48;3.90;;;3.70;;
76336;SDS011;65157;50.082;18.178;2023-07-29T07:03:14;2.90;;;2.70;;
76336;SDS011;65157;50.082;18.178;2023-07-29T07:05:40;3.00;;;2.90;;
76336;SDS011;65157;50.082;18.178;2023-07-29T07:08:06;3.00;;;2.80;;
76336;SDS011;65157;50.082;18.178;2023-07-29T07:10:32;2.30;;;2.20;;
76336;SDS011;65157;50.082;18.178;2023-07-29T07:12:58;2.00;;;1.90;;
76336;SDS011;65157;50.082;18.178;2023-07-29T07:15:24;4.40;;;4.00;;
76336;SDS011;65157;50.082;18.178;2023-07-29T07:17:50;2.50;;;2.40;;
76336;SDS011;65157;50.082;18.178;2023-07-29T07:20:17;3.90;;;3.70;;
76336;SDS011;65157;50.082;18.178;2023-07-29T07:22:43;3.00;;;2.90;;
76336;SDS011;65157;50.082;18.178;2023-07-29T07:25:09;2.60;;;2.50;;
76336;SDS011;65157;50.082;18.178;2023-07-29T07:27:36;2.50;;;2.40;;
76336;SDS011;65157;50.082;18.178;2023-07-29T07:30:03;2.10;;;2.00;;
76336;SDS011;65157;50.082;18.178;2023-07-29T07:32:29;2.00;;;1.90;;
76336;SDS011;65157;50.082;18.178;2023-07-29T07:34:55;2.10;;;1.90;;
76336;SDS011;65157;50.082;18.178;2023-07-29T07:37:21;3.30;;;3.20;;
76336;SDS011;65157;50.082;18.178;2023-07-29T07:39:47;1.90;;;1.80;;
76336;SDS011;65157;50.082;18.178;2023-07-29T07:42:13;3.00;;;2.80;;
76336;SDS011;65157;50.082;18.178;2023-07-29T07:44:38;4.00;;;3.80;;
76336;SDS011;65157;50.082;18.178;2023-07-29T07:47:04;4.10;;;3.90;;
76336;SDS011;65157;50.082;18.178;2023-07-29T07:49:31;3.60;;;3.40;;
76336;SDS011;65157;50.082;18.178;2023-07-29T07:54:22;2.60;;;2.50;;
76336;SDS011;65157;50.082;18.178;2023-07-29T07:56:48;4.00;;;3.80;;
76336;SDS011;65157;50.082;18.178;2023-07-29T07:59:14;2.60;;;2.40;;
76336;SDS011;65157;50.082;18.178;2023-07-29T08:01:43;3.20;;;2.60;;
76336;SDS011;65157;50.082;18.178;2023-07-29T08:04:09;2.40;;;2.30;;
76336;SDS011;65157;50.082;18.178;2023-07-29T08:06:35;2.50;;;2.40;;
76336;SDS011;65157;50.082;18.178;2023-07-29T08:09:01;2.30;;;2.20;;
76336;SDS011;65157;50.082;18.178;2023-07-29T08:11:27;2.70;;;2.60;;
76336;SDS011;65157;50.082;18.178;2023-07-29T08:13:54;2.40;;;2.20;;
76336;SDS011;65157;50.082;18.178;2023-07-29T08:16:20;3.50;;;3.40;;
76336;SDS011;65157;50.082;18.178;2023-07-29T08:18:46;2.70;;;2.50;;
76336;SDS011;65157;50.082;18.178;2023-07-29T08:21:11;2.50;;;2.30;;
76336;SDS011;65157;50.082;18.178;2023-07-29T08:23:37;2.00;;;1.90;;
76336;SDS011;65157;50.082;18.178;2023-07-29T08:26:04;2.30;;;2.10;;
76336;SDS011;65157;50.082;18.178;2023-07-29T08:28:35;2.70;;;2.50;;
76336;SDS011;65157;50.082;18.178;2023-07-29T08:31:07;2.60;;;2.40;;
76336;SDS011;65157;50.082;18.178;2023-07-29T08:33:33;2.60;;;2.50;;
76336;SDS011;65157;50.082;18.178;2023-07-29T08:35:59;2.70;;;2.60;;
76336;SDS011;65157;50.082;18.178;2023-07-29T08:38:25;2.50;;;2.40;;
76336;SDS011;65157;50.082;18.178;2023-07-29T08:43:30;2.30;;;2.20;;
76336;SDS011;65157;50.082;18.178;2023-07-29T08:46:00;2.00;;;1.90;;
76336;SDS011;65157;50.082;18.178;2023-07-29T08:48:36;3.40;;;3.20;;
76336;SDS011;65157;50.082;18.178;2023-07-29T08:51:07;4.60;;;4.20;;
76336;SDS011;65157;50.082;18.178;2023-07-29T08:53:35;2.70;;;2.60;;
76336;SDS011;65157;50.082;18.178;2023-07-29T08:56:01;3.70;;;3.40;;
76336;SDS011;65157;50.082;18.178;2023-07-29T08:58:28;4.10;;;3.80;;
76336;SDS011;65157;50.082;18.178;2023-07-29T09:00:55;2.50;;;2.30;;
76336;SDS011;65157;50.082;18.178;2023-07-29T09:03:21;2.30;;;2.20;;
76336;SDS011;65157;50.082;18.178;2023-07-29T09:05:47;3.40;;;3.10;;
76336;SDS011;65157;50.082;18.178;2023-07-29T09:08:15;3.20;;;3.00;;
76336;SDS011;65157;50.082;18.178;2023-07-29T09:10:41;4.20;;;3.80;;
76336;SDS011;65157;50.082;18.178;2023-07-29T09:13:07;4.00;;;3.70;;
76336;SDS011;65157;50.082;18.178;2023-07-29T09:15:35;3.80;;;3.40;;
76336;SDS011;65157;50.082;18.178;2023-07-29T09:18:37;2.90;;;2.80;;
76336;SDS011;65157;50.082;18.178;2023-07-29T09:20:58;2.20;;;2.10;;
76336;SDS011;65157;50.082;18.178;2023-07-29T09:23:25;2.60;;;2.40;;
76336;SDS011;65157;50.082;18.178;2023-07-29T09:25:52;2.70;;;2.60;;
76336;SDS011;65157;50.082;18.178;2023-07-29T09:28:27;2.50;;;2.40;;
76336;SDS011;65157;50.082;18.178;2023-07-29T09:30:59;2.60;;;2.50;;
76336;SDS011;65157;50.082;18.178;2023-07-29T09:33:25;2.60;;;2.30;;
76336;SDS011;65157;50.082;18.178;2023-07-29T09:35:52;3.70;;;3.50;;
76336;SDS011;65157;50.082;18.178;2023-07-29T09:38:25;3.30;;;3.20;;
76336;SDS011;65157;50.082;18.178;2023-07-29T09:40:54;2.00;;;1.90;;
76336;SDS011;65157;50.082;18.178;2023-07-29T09:43:24;3.40;;;3.20;;
76336;SDS011;65157;50.082;18.178;2023-07-29T09:45:55;2.60;;;2.40;;
76336;SDS011;65157;50.082;18.178;2023-07-29T09:48:23;4.40;;;4.10;;
76336;SDS011;65157;50.082;18.178;2023-07-29T09:50:50;3.50;;;3.30;;
76336;SDS011;65157;50.082;18.178;2023-07-29T09:53:16;3.00;;;2.90;;
76336;SDS011;65157;50.082;18.178;2023-07-29T09:55:46;3.70;;;3.50;;
76336;SDS011;65157;50.082;18.178;2023-07-29T09:58:13;3.60;;;3.40;;
76336;SDS011;65157;50.082;18.178;2023-07-29T10:00:39;2.80;;;2.70;;
76336;SDS011;65157;50.082;18.178;2023-07-29T10:03:06;3.60;;;3.40;;
76336;SDS011;65157;50.082;18.178;2023-07-29T10:07:58;3.10;;;2.90;;
76336;SDS011;65157;50.082;18.178;2023-07-29T10:10:24;3.20;;;3.10;;
76336;SDS011;65157;50.082;18.178;2023-07-29T10:12:51;3.20;;;3.00;;
76336;SDS011;65157;50.082;18.178;2023-07-29T10:15:20;2.90;;;2.70;;
76336;SDS011;65157;50.082;18.178;2023-07-29T10:17:46;3.50;;;3.30;;
76336;SDS011;65157;50.082;18.178;2023-07-29T10:20:13;3.10;;;3.00;;
76336;SDS011;65157;50.082;18.178;2023-07-29T10:22:39;3.80;;;3.60;;
76336;SDS011;65157;50.082;18.178;2023-07-29T10:25:08;3.00;;;2.90;;
76336;SDS011;65157;50.082;18.178;2023-07-29T10:27:56;4.10;;;2.60;;
76336;SDS011;65157;50.082;18.178;2023-07-29T10:30:30;2.10;;;1.90;;
76336;SDS011;65157;50.082;18.178;2023-07-29T10:32:58;2.90;;;2.70;;
76336;SDS011;65157;50.082;18.178;2023-07-29T10:35:27;2.90;;;2.70;;
76336;SDS011;65157;50.082;18.178;2023-07-29T10:37:54;2.80;;;2.60;;
76336;SDS011;65157;50.082;18.178;2023-07-29T10:40:21;2.20;;;2.10;;
76336;SDS011;65157;50.082;18.178;2023-07-29T10:43:06;3.70;;;2.50;;
76336;SDS011;65157;50.082;18.178;2023-07-29T10:45:38;2.60;;;2.50;;
76336;SDS011;65157;50.082;18.178;2023-07-29T10:48:06;2.80;;;2.70;;
76336;SDS011;65157;50.082;18.178;2023-07-29T10:50:35;3.40;;;3.20;;
76336;SDS011;65157;50.082;18.178;2023-07-29T10:53:01;3.30;;;3.00;;
76336;SDS011;65157;50.082;18.178;2023-07-29T10:55:29;2.40;;;2.30;;
76336;SDS011;65157;50.082;18.178;2023-07-29T10:58:04;2.70;;;2.50;;
76336;SDS011;65157;50.082;18.178;2023-07-29T11:00:41;3.10;;;2.90;;
76336;SDS011;65157;50.082;18.178;2023-07-29T11:03:08;3.60;;;3.40;;
76336;SDS011;65157;50.082;18.178;2023-07-29T11:08:20;3.50;;;2.60;;
76336;SDS011;65157;50.082;18.178;2023-07-29T11:11:06;3.10;;;2.90;;
76336;SDS011;65157;50.082;18.178;2023-07-29T11:13:36;3.30;;;3.10;;
76336;SDS011;65157;50.082;18.178;2023-07-29T11:16:03;3.40;;;3.20;;
76336;SDS011;65157;50.082;18.178;2023-07-29T11:18:31;4.00;;;3.70;;
76336;SDS011;65157;50.082;18.178;2023-07-29T11:20:59;3.60;;;3.30;;
76336;SDS011;65157;50.082;18.178;2023-07-29T11:23:35;3.80;;;3.50;;
76336;SDS011;65157;50.082;18.178;2023-07-29T11:26:02;3.30;;;3.00;;
76336;SDS011;65157;50.082;18.178;2023-07-29T11:28:29;3.20;;;3.10;;
76336;SDS011;65157;50.082;18.178;2023-07-29T11:30:56;3.60;;;3.40;;
76336;SDS011;65157;50.082;18.178;2023-07-29T11:33:24;2.60;;;2.50;;
76336;SDS011;65157;50.082;18.178;2023-07-29T11:35:51;3.70;;;3.30;;
76336;SDS011;65157;50.082;18.178;2023-07-29T11:38:18;3.80;;;3.60;;
76336;SDS011;65157;50.082;18.178;2023-07-29T11:43:44;2.80;;;2.60;;
76336;SDS011;65157;50.082;18.178;2023-07-29T11:46:11;2.90;;;2.70;;
76336;SDS011;65157;50.082;18.178;2023-07-29T11:48:37;3.10;;;2.90;;
76336;SDS011;65157;50.082;18.178;2023-07-29T11:51:03;2.40;;;2.30;;
76336;SDS011;65157;50.082;18.178;2023-07-29T11:53:29;2.50;;;2.40;;
76336;SDS011;65157;50.082;18.178;2023-07-29T11:55:56;3.00;;;2.80;;
76336;SDS011;65157;50.082;18.178;2023-07-29T11:58:22;2.10;;;2.00;;
76336;SDS011;65157;50.082;18.178;2023-07-29T12:00:49;2.70;;;2.60;;
76336;SDS011;65157;50.082;18.178;2023-07-29T12:03:15;2.50;;;2.30;;
76336;SDS011;65157;50.082;18.178;2023-07-29T12:05:42;2.70;;;2.60;;
76336;SDS011;65157;50.082;18.178;2023-07-29T12:08:08;5.00;;;3.30;;
76336;SDS011;65157;50.082;18.178;2023-07-29T12:13:00;2.70;;;2.60;;
76336;SDS011;65157;50.082;18.178;2023-07-29T12:15:28;4.00;;;3.70;;
76336;SDS011;65157;50.082;18.178;2023-07-29T12:17:56;3.80;;;3.60;;
76336;SDS011;65157;50.082;18.178;2023-07-29T12:20:25;3.10;;;2.90;;
76336;SDS011;65157;50.082;18.178;2023-07-29T12:22:55;2.70;;;2.50;;
76336;SDS011;65157;50.082;18.178;2023-07-29T12:25:38;2.50;;;2.40;;
76336;SDS011;65157;50.082;18.178;2023-07-29T12:28:06;2.80;;;2.70;;
76336;SDS011;65157;50.082;18.178;2023-07-29T12:30:34;2.50;;;2.30;;
76336;SDS011;65157;50.082;18.178;2023-07-29T12:33:00;2.50;;;2.40;;
76336;SDS011;65157;50.082;18.178;2023-07-29T12:35:33;2.70;;;2.60;;
76336;SDS011;65157;50.082;18.178;2023-07-29T12:38:02;2.70;;;2.50;;
76336;SDS011;65157;50.082;18.178;2023-07-29T12:40:28;2.70;;;2.50;;
76336;SDS011;65157;50.082;18.178;2023-07-29T12:42:55;2.90;;;2.80;;
76336;SDS011;65157;50.082;18.178;2023-07-29T12:45:21;1.70;;;1.60;;
76336;SDS011;65157;50.082;18.178;2023-07-29T12:50:13;2.50;;;2.40;;
76336;SDS011;65157;50.082;18.178;2023-07-29T12:52:39;2.40;;;2.30;;
76336;SDS011;65157;50.082;18.178;2023-07-29T12:55:05;3.40;;;3.00;;
76336;SDS011;65157;50.082;18.178;2023-07-29T12:57:32;2.80;;;2.60;;
76336;SDS011;65157;50.082;18.178;2023-07-29T12:59:58;2.40;;;2.20;;
76336;SDS011;65157;50.082;18.178;2023-07-29T13:02:23;3.70;;;3.50;;
76336;SDS011;65157;50.082;18.178;2023-07-29T13:07:15;3.40;;;3.20;;
76336;SDS011;65157;50.082;18.178;2023-07-29T13:09:41;2.00;;;1.90;;
76336;SDS011;65157;50.082;18.178;2023-07-29T13:12:07;3.10;;;2.90;;
76336;SDS011;65157;50.082;18.178;2023-07-29T13:14:34;2.20;;;2.10;;
76336;SDS011;65157;50.082;18.178;2023-07-29T13:16:59;3.60;;;3.50;;
76336;SDS011;65157;50.082;18.178;2023-07-29T13:19:25;3.60;;;2.90;;
76336;SDS011;65157;50.082;18.178;2023-07-29T13:21:51;2.60;;;2.40;;
76336;SDS011;65157;50.082;18.178;2023-07-29T13:24:17;3.50;;;3.30;;
76336;SDS011;65157;50.082;18.178;2023-07-29T13:26:43;1.80;;;1.70;;
76336;SDS011;65157;50.082;18.178;2023-07-29T13:29:09;3.50;;;1.90;;
76336;SDS011;65157;50.082;18.178;2023-07-29T13:31:34;2.60;;;2.50;;
76336;SDS011;65157;50.082;18.178;2023-07-29T13:34:00;3.20;;;3.00;;
76336;SDS011;65157;50.082;18.178;2023-07-29T13:36:26;3.00;;;1.90;;
76336;SDS011;65157;50.082;18.178;2023-07-29T13:38:52;3.50;;;3.20;;
76336;SDS011;65157;50.082;18.178;2023-07-29T13:41:18;3.10;;;3.00;;
76336;SDS011;65157;50.082;18.178;2023-07-29T13:43:45;3.60;;;2.60;;
76336;SDS011;65157;50.082;18.178;2023-07-29T13:46:11;2.50;;;2.30;;
76336;SDS011;65157;50.082;18.178;2023-07-29T13:48:37;3.20;;;3.00;;
76336;SDS011;65157;50.082;18.178;2023-07-29T13:51:03;3.20;;;3.00;;
76336;SDS011;65157;50.082;18.178;2023-07-29T13:53:29;2.80;;;2.70;;
76336;SDS011;65157;50.082;18.178;2023-07-29T13:58:21;3.10;;;2.90;;
76336;SDS011;65157;50.082;18.178;2023-07-29T14:00:48;2.80;;;2.70;;
76336;SDS011;65157;50.082;18.178;2023-07-29T14:03:14;3.90;;;2.30;;
76336;SDS011;65157;50.082;18.178;2023-07-29T14:05:40;3.00;;;2.80;;
76336;SDS011;65157;50.082;18.178;2023-07-29T14:08:06;2.80;;;2.60;;
76336;SDS011;65157;50.082;18.178;2023-07-29T14:10:32;2.70;;;2.60;;
76336;SDS011;65157;50.082;18.178;2023-07-29T14:12:58;3.00;;;2.90;;
76336;SDS011;65157;50.082;18.178;2023-07-29T14:15:24;3.20;;;3.10;;
76336;SDS011;65157;50.082;18.178;2023-07-29T14:17:49;2.60;;;2.40;;
76336;SDS011;65157;50.082;18.178;2023-07-29T14:20:15;2.60;;;2.50;;
76336;SDS011;65157;50.082;18.178;2023-07-29T14:22:41;2.70;;;2.50;;
76336;SDS011;65157;50.082;18.178;2023-07-29T14:25:07;2.60;;;2.30;;
76336;SDS011;65157;50.082;18.178;2023-07-29T14:27:33;3.30;;;2.60;;
76336;SDS011;65157;50.082;18.178;2023-07-29T14:29:59;4.10;;;2.10;;
76336;SDS011;65157;50.082;18.178;2023-07-29T14:32:25;2.50;;;2.10;;
76336;SDS011;65157;50.082;18.178;2023-07-29T14:34:51;3.00;;;2.60;;
76336;SDS011;65157;50.082;18.178;2023-07-29T14:37:17;1.80;;;1.70;;
76336;SDS011;65157;50.082;18.178;2023-07-29T14:39:43;2.00;;;1.90;;
76336;SDS011;65157;50.082;18.178;2023-07-29T14:42:09;2.30;;;2.20;;
76336;SDS011;65157;50.082;18.178;2023-07-29T14:44:35;2.20;;;2.10;;
76336;SDS011;65157;50.082;18.178;2023-07-29T14:47:01;3.20;;;2.90;;
76336;SDS011;65157;50.082;18.178;2023-07-29T14:49:27;3.70;;;3.40;;
76336;SDS011;65157;50.082;18.178;2023-07-29T14:51:53;3.60;;;3.40;;
76336;SDS011;65157;50.082;18.178;2023-07-29T14:54:19;3.30;;;3.20;;
76336;SDS011;65157;50.082;18.178;2023-07-29T14:59:11;3.70;;;3.50;;
76336;SDS011;65157;50.082;18.178;2023-07-29T15:01:37;2.20;;;2.10;;
76336;SDS011;65157;50.082;18.178;2023-07-29T15:04:03;4.10;;;3.90;;
76336;SDS011;65157;50.082;18.178;2023-07-29T15:06:30;2.30;;;2.10;;